Time;durP1;ratioP1;P1;durP2;ratioP2;P2;SDS_P1;SDS_P2;PMS_P1;PMS_P2;Temp;Humidity;BMP_temperature;BMP_pressure;BME280_temperature;BME280_humidity;BME280_pressure;Samples;Min_cycle;Max_cycle;Signal;HPM_P1;HPM_P2
2022/11/05 00:09:28;;;;;;;2.57;1.80;;;;;;;;;;5036307;28;20186;-59
2022/11/05 00:17:23;;;;;;;2.50;1.80;;;;;;;;;;5019520;28;20234;-51
2022/11/05 00:19:48;;;;;;;3.27;2.23;;;;;;;;;;5015236;28;20658;-50
2022/11/05 00:25:15;;;;;;;2.27;1.80;;;;;;;;;;5016019;28;20409;-53
2022/11/05 00:27:44;;;;;;;2.73;1.93;;;;;;;;;;5012562;28;20227;-55
2022/11/05 00:30:10;;;;;;;3.17;2.00;;;;;;;;;;5016810;28;20626;-52
2022/11/05 00:32:36;;;;;;;2.37;1.70;;;;;;;;;;5014848;28;20687;-52
2022/11/05 00:35:01;;;;;;;2.03;1.70;;;;;;;;;;5011693;28;20246;-51
2022/11/05 00:37:27;;;;;;;3.10;1.93;;;;;;;;;;5020802;28;20168;-51
2022/11/05 00:39:52;;;;;;;2.60;2.00;;;;;;;;;;5013167;28;20219;-51
2022/11/05 00:45:02;;;;;;;2.30;1.60;;;;;;;;;;5014307;28;20682;-50
2022/11/05 00:50:12;;;;;;;2.30;1.97;;;;;;;;;;5014344;28;20214;-52
2022/11/05 00:52:56;;;;;;;2.33;1.80;;;;;;;;;;5013796;28;20759;-54
2022/11/05 00:55:23;;;;;;;2.57;2.07;;;;;;;;;;5018228;28;20176;-55
2022/11/05 00:57:48;;;;;;;2.47;1.77;;;;;;;;;;5019714;28;20192;-54
2022/11/05 01:00:14;;;;;;;2.43;1.80;;;;;;;;;;5019408;28;20272;-50
2022/11/05 01:02:39;;;;;;;2.90;2.00;;;;;;;;;;5016330;28;20293;-53
2022/11/05 01:05:05;;;;;;;3.37;2.10;;;;;;;;;;5017545;28;20191;-51
2022/11/05 01:07:30;;;;;;;2.90;2.10;;;;;;;;;;5015325;28;20318;-52
2022/11/05 01:09:55;;;;;;;2.53;1.77;;;;;;;;;;5018017;28;20310;-51
2022/11/05 01:12:20;;;;;;;2.80;1.90;;;;;;;;;;5021230;28;20218;-51
2022/11/05 01:14:45;;;;;;;2.40;1.77;;;;;;;;;;5022836;28;20183;-54
2022/11/05 01:17:11;;;;;;;2.23;1.80;;;;;;;;;;5022824;28;20221;-56
2022/11/05 01:19:38;;;;;;;2.40;1.47;;;;;;;;;;5024089;28;20184;-55
2022/11/05 01:22:03;;;;;;;2.13;1.53;;;;;;;;;;5022972;28;20203;-51
2022/11/05 01:24:28;;;;;;;2.77;2.00;;;;;;;;;;5020915;28;20773;-53
2022/11/05 01:26:53;;;;;;;2.73;1.90;;;;;;;;;;5021723;28;20385;-53
2022/11/05 01:29:19;;;;;;;2.57;2.07;;;;;;;;;;5023248;28;20187;-53
2022/11/05 01:31:44;;;;;;;3.20;1.83;;;;;;;;;;5020340;28;20195;-55
2022/11/05 01:34:09;;;;;;;3.03;1.70;;;;;;;;;;5023342;28;20175;-53
2022/11/05 01:36:34;;;;;;;1.87;1.67;;;;;;;;;;5021332;28;20277;-50
2022/11/05 01:39:00;;;;;;;2.20;1.70;;;;;;;;;;5022152;28;20222;-51
2022/11/05 01:41:26;;;;;;;2.17;1.80;;;;;;;;;;5022293;28;20203;-51
2022/11/05 01:43:54;;;;;;;2.43;1.80;;;;;;;;;;5027474;28;20561;-53
2022/11/05 01:46:26;;;;;;;2.60;1.90;;;;;;;;;;5027633;28;20211;-52
2022/11/05 01:48:52;;;;;;;2.73;2.00;;;;;;;;;;5029200;28;20727;-52
2022/11/05 01:51:21;;;;;;;2.00;1.70;;;;;;;;;;5028408;28;20282;-55
2022/11/05 01:53:47;;;;;;;2.13;1.70;;;;;;;;;;5020358;28;20549;-51
2022/11/05 01:56:12;;;;;;;2.07;1.70;;;;;;;;;;5029792;28;20590;-54
2022/11/05 01:59:01;;;;;;;2.23;1.60;;;;;;;;;;5026201;28;20190;-51
2022/11/05 02:01:27;;;;;;;2.20;1.70;;;;;;;;;;5024023;28;20216;-53
2022/11/05 02:03:54;;;;;;;2.27;1.70;;;;;;;;;;5029144;28;20190;-51
2022/11/05 02:06:20;;;;;;;2.00;1.80;;;;;;;;;;5025583;28;20204;-51
2022/11/05 02:08:56;;;;;;;3.47;2.00;;;;;;;;;;5030439;28;20576;-55
2022/11/05 02:11:22;;;;;;;2.17;1.70;;;;;;;;;;5018585;28;20211;-53
2022/11/05 02:13:47;;;;;;;3.10;2.10;;;;;;;;;;5017802;28;20191;-53
2022/11/05 02:16:23;;;;;;;3.13;1.77;;;;;;;;;;5024153;28;20286;-51
2022/11/05 02:18:58;;;;;;;1.90;1.57;;;;;;;;;;5015778;28;20571;-51
2022/11/05 02:21:59;;;;;;;2.73;1.80;;;;;;;;;;5021237;28;20676;-52
2022/11/05 02:24:27;;;;;;;2.53;1.73;;;;;;;;;;5038857;28;20615;-53
2022/11/05 02:26:55;;;;;;;2.00;1.60;;;;;;;;;;5019863;28;20687;-55
2022/11/05 02:29:39;;;;;;;2.17;1.90;;;;;;;;;;5019086;28;20179;-53
2022/11/05 02:32:59;;;;;;;2.53;1.70;;;;;;;;;;5022593;28;20279;-52
2022/11/05 02:36:05;;;;;;;2.03;1.70;;;;;;;;;;5038412;28;20214;-51
2022/11/05 02:38:39;;;;;;;2.27;1.73;;;;;;;;;;5019833;28;20229;-53
2022/11/05 02:41:30;;;;;;;2.63;1.87;;;;;;;;;;5020749;28;20628;-54
2022/11/05 02:43:58;;;;;;;3.23;1.77;;;;;;;;;;5016181;28;21666;-53
2022/11/05 02:46:39;;;;;;;2.00;1.47;;;;;;;;;;5022763;28;20196;-54
2022/11/05 02:49:42;;;;;;;2.00;1.80;;;;;;;;;;5020315;28;20663;-51
2022/11/05 02:52:14;;;;;;;2.60;2.00;;;;;;;;;;5018386;28;20200;-53
2022/11/05 02:55:15;;;;;;;2.20;1.70;;;;;;;;;;5017380;28;20184;-55
2022/11/05 03:00:45;;;;;;;2.47;1.60;;;;;;;;;;5215842;22;20304;-61
2022/11/05 03:03:17;;;;;;;2.03;1.70;;;;;;;;;;5061148;28;20613;-62
2022/11/05 03:05:50;;;;;;;2.90;1.80;;;;;;;;;;5060514;28;20200;-62
2022/11/05 03:08:29;;;;;;;1.73;1.57;;;;;;;;;;5053750;28;20265;-62
2022/11/05 03:11:01;;;;;;;2.40;1.70;;;;;;;;;;5058442;28;20184;-61
2022/11/05 03:13:45;;;;;;;2.53;1.83;;;;;;;;;;5056676;28;20707;-62
2022/11/05 03:16:17;;;;;;;2.00;1.60;;;;;;;;;;5054914;28;20173;-62
2022/11/05 03:19:08;;;;;;;2.30;1.80;;;;;;;;;;5059678;28;20198;-62
2022/11/05 03:21:40;;;;;;;2.00;1.80;;;;;;;;;;5038735;28;20274;-61
2022/11/05 03:24:13;;;;;;;2.00;1.63;;;;;;;;;;5053418;28;20178;-62
2022/11/05 03:27:18;;;;;;;2.40;1.80;;;;;;;;;;5052812;28;20683;-61
2022/11/05 03:29:49;;;;;;;1.90;1.60;;;;;;;;;;4998076;28;20203;-62
2022/11/05 03:32:16;;;;;;;1.83;1.63;;;;;;;;;;5045480;28;20191;-62
2022/11/05 03:34:45;;;;;;;2.77;1.70;;;;;;;;;;5059049;28;20681;-61
2022/11/05 03:37:10;;;;;;;2.87;1.60;;;;;;;;;;5061024;28;20519;-61
2022/11/05 03:39:49;;;;;;;2.27;1.90;;;;;;;;;;5055995;28;20208;-61
2022/11/05 03:42:16;;;;;;;2.20;1.83;;;;;;;;;;5055959;28;20210;-62
2022/11/05 03:44:47;;;;;;;2.20;1.80;;;;;;;;;;5058645;28;20210;-61
2022/11/05 03:47:15;;;;;;;2.90;1.80;;;;;;;;;;5060946;28;20194;-62
2022/11/05 03:49:55;;;;;;;2.07;1.60;;;;;;;;;;5057058;28;20672;-62
2022/11/05 03:52:24;;;;;;;3.37;2.00;;;;;;;;;;5059099;28;20261;-61
2022/11/05 03:54:49;;;;;;;2.63;2.00;;;;;;;;;;5055206;28;20227;-61
2022/11/05 03:57:23;;;;;;;2.63;1.93;;;;;;;;;;5051249;28;20179;-62
2022/11/05 03:59:49;;;;;;;2.67;1.90;;;;;;;;;;5015670;28;1153041;-62
2022/11/05 04:02:17;;;;;;;2.70;2.00;;;;;;;;;;5056400;28;20201;-62
2022/11/05 04:04:42;;;;;;;2.07;1.70;;;;;;;;;;5069199;28;20645;-61
2022/11/05 04:15:20;;;;;;;2.33;1.87;;;;;;;;;;5062633;28;20232;-62
2022/11/05 04:17:45;;;;;;;2.10;1.90;;;;;;;;;;5061945;28;20174;-61
2022/11/05 04:25:47;;;;;;;2.00;1.70;;;;;;;;;;5050637;28;20178;-62
2022/11/05 04:28:13;;;;;;;1.87;1.70;;;;;;;;;;5067385;28;20178;-62
2022/11/05 04:30:38;;;;;;;2.10;1.63;;;;;;;;;;5060090;28;20174;-62
2022/11/05 04:33:09;;;;;;;2.17;1.60;;;;;;;;;;5066870;28;20178;-62
2022/11/05 04:35:40;;;;;;;2.10;1.70;;;;;;;;;;5059751;28;20175;-61
2022/11/05 04:38:11;;;;;;;3.30;1.80;;;;;;;;;;5058073;28;20175;-61
2022/11/05 04:40:36;;;;;;;1.67;1.50;;;;;;;;;;5059054;28;20474;-62
2022/11/05 04:43:02;;;;;;;2.87;1.93;;;;;;;;;;5060909;28;20600;-61
2022/11/05 04:45:33;;;;;;;2.60;1.90;;;;;;;;;;5057600;28;20208;-61
2022/11/05 04:47:58;;;;;;;1.97;1.77;;;;;;;;;;5058478;28;20198;-62
2022/11/05 04:50:23;;;;;;;2.47;1.80;;;;;;;;;;5056922;28;20573;-62
2022/11/05 04:52:49;;;;;;;2.00;1.80;;;;;;;;;;5056597;28;20178;-62
2022/11/05 04:55:14;;;;;;;2.00;1.77;;;;;;;;;;5058384;28;20178;-62
2022/11/05 04:57:39;;;;;;;2.50;1.80;;;;;;;;;;5055384;28;20193;-62
2022/11/05 05:00:08;;;;;;;1.50;1.40;;;;;;;;;;5056350;28;20203;-62
2022/11/05 05:02:34;;;;;;;1.73;1.43;;;;;;;;;;5057103;28;20261;-62
2022/11/05 05:04:59;;;;;;;2.00;1.80;;;;;;;;;;5054275;28;24424;-62
2022/11/05 05:07:25;;;;;;;2.10;1.80;;;;;;;;;;5056850;28;20207;-61
2022/11/05 05:09:50;;;;;;;2.07;1.77;;;;;;;;;;5055880;28;20244;-62
2022/11/05 05:12:15;;;;;;;2.13;1.63;;;;;;;;;;5057018;28;20185;-62
2022/11/05 05:14:41;;;;;;;2.30;1.80;;;;;;;;;;5057758;28;20301;-61
2022/11/05 05:17:06;;;;;;;3.07;1.97;;;;;;;;;;5060468;28;20238;-61
2022/11/05 05:21:37;;;;;;;1.97;1.77;;;;;;;;;;5054400;28;20286;-62
2022/11/05 05:22:16;;;;;;;2.30;1.80;;;;;;;;;;5053391;28;20183;-62
2022/11/05 05:24:42;;;;;;;1.90;1.70;;;;;;;;;;5054879;28;21223;-61
2022/11/05 05:27:07;;;;;;;2.37;1.70;;;;;;;;;;5050593;28;20199;-62
2022/11/05 05:29:33;;;;;;;2.27;1.70;;;;;;;;;;5062093;28;20200;-62
2022/11/05 05:31:58;;;;;;;2.13;1.70;;;;;;;;;;5058181;28;20712;-62
2022/11/05 05:34:23;;;;;;;2.03;1.80;;;;;;;;;;5054256;28;20686;-62
2022/11/05 05:36:48;;;;;;;1.93;1.70;;;;;;;;;;5054274;28;20680;-62
2022/11/05 05:39:13;;;;;;;2.73;1.70;;;;;;;;;;5051717;28;20721;-62
2022/11/05 05:41:39;;;;;;;2.10;1.70;;;;;;;;;;5050450;28;20551;-61
2022/11/05 05:44:05;;;;;;;2.13;1.60;;;;;;;;;;5054281;28;20254;-62
2022/11/05 05:46:30;;;;;;;2.37;1.77;;;;;;;;;;5051602;28;20206;-61
2022/11/05 05:48:55;;;;;;;1.90;1.57;;;;;;;;;;5053162;28;20626;-62
2022/11/05 05:51:20;;;;;;;1.77;1.67;;;;;;;;;;5060506;28;20829;-62
2022/11/05 05:53:46;;;;;;;2.07;1.80;;;;;;;;;;5053835;28;20207;-62
2022/11/05 05:56:13;;;;;;;2.00;1.73;;;;;;;;;;5060898;28;20175;-61
2022/11/05 05:58:39;;;;;;;2.70;1.80;;;;;;;;;;5055383;28;20190;-61
2022/11/05 06:01:07;;;;;;;1.97;1.67;;;;;;;;;;5053164;28;20266;-62
2022/11/05 06:03:33;;;;;;;2.27;1.93;;;;;;;;;;5056036;28;20649;-62
2022/11/05 06:06:00;;;;;;;1.90;1.70;;;;;;;;;;5056733;28;20257;-62
2022/11/05 06:08:25;;;;;;;2.30;1.60;;;;;;;;;;5056391;28;20194;-62
2022/11/05 06:10:51;;;;;;;2.00;1.70;;;;;;;;;;5057408;28;20553;-61
2022/11/05 06:13:16;;;;;;;1.87;1.67;;;;;;;;;;5057811;28;20647;-62
2022/11/05 06:15:41;;;;;;;1.97;1.60;;;;;;;;;;5057497;28;20598;-62
2022/11/05 06:18:06;;;;;;;1.90;1.67;;;;;;;;;;5056815;28;20186;-62
2022/11/05 06:20:31;;;;;;;2.30;1.80;;;;;;;;;;5054633;28;20186;-62
2022/11/05 06:22:57;;;;;;;1.80;1.57;;;;;;;;;;5054715;28;20182;-62
2022/11/05 06:25:23;;;;;;;2.10;1.60;;;;;;;;;;5056114;28;20171;-62
2022/11/05 06:27:48;;;;;;;2.37;1.90;;;;;;;;;;5052099;28;20277;-62
2022/11/05 06:30:13;;;;;;;2.00;1.57;;;;;;;;;;5059078;28;20199;-62
2022/11/05 06:32:38;;;;;;;1.87;1.50;;;;;;;;;;5053037;28;20186;-61
2022/11/05 06:35:04;;;;;;;1.87;1.67;;;;;;;;;;5052353;28;20175;-62
2022/11/05 06:37:32;;;;;;;1.77;1.40;;;;;;;;;;5061255;28;20175;-62
2022/11/05 06:39:57;;;;;;;1.60;1.50;;;;;;;;;;5051291;28;20213;-62
2022/11/05 06:42:23;;;;;;;1.70;1.60;;;;;;;;;;5058596;28;20174;-62
2022/11/05 06:44:48;;;;;;;1.87;1.60;;;;;;;;;;5053845;28;20715;-62
2022/11/05 06:47:13;;;;;;;2.03;1.83;;;;;;;;;;5053967;28;20201;-62
2022/11/05 06:49:39;;;;;;;1.83;1.50;;;;;;;;;;5059218;28;20198;-62
2022/11/05 06:52:04;;;;;;;1.73;1.60;;;;;;;;;;5052460;28;20190;-62
2022/11/05 06:54:29;;;;;;;1.80;1.50;;;;;;;;;;5052336;28;20206;-61
2022/11/05 06:56:54;;;;;;;1.60;1.50;;;;;;;;;;5058270;28;20190;-62
2022/11/05 06:59:19;;;;;;;2.30;1.73;;;;;;;;;;5055774;28;20193;-62
2022/11/05 07:01:45;;;;;;;1.50;1.40;;;;;;;;;;5056194;28;20202;-62
2022/11/05 07:04:11;;;;;;;2.00;1.70;;;;;;;;;;5056067;28;20179;-62
2022/11/05 07:06:36;;;;;;;2.40;1.80;;;;;;;;;;5055785;28;20239;-62
2022/11/05 07:09:01;;;;;;;2.10;1.80;;;;;;;;;;5051306;28;20206;-61
2022/11/05 07:11:27;;;;;;;2.20;1.70;;;;;;;;;;5066808;28;20545;-61
2022/11/05 07:13:52;;;;;;;2.00;1.80;;;;;;;;;;5054245;28;20573;-62
2022/11/05 07:16:17;;;;;;;2.00;1.60;;;;;;;;;;5054366;28;20678;-62
2022/11/05 07:18:42;;;;;;;1.63;1.50;;;;;;;;;;5057875;28;20205;-62
2022/11/05 07:21:08;;;;;;;1.97;1.77;;;;;;;;;;5055089;28;20174;-63
2022/11/05 07:23:33;;;;;;;2.00;1.70;;;;;;;;;;5055289;28;20252;-62
2022/11/05 07:25:58;;;;;;;1.90;1.70;;;;;;;;;;5049980;28;20215;-62
2022/11/05 07:28:24;;;;;;;2.33;1.87;;;;;;;;;;5048217;28;20209;-62
2022/11/05 07:30:49;;;;;;;1.83;1.63;;;;;;;;;;5059937;28;20641;-62
2022/11/05 07:33:14;;;;;;;2.33;1.73;;;;;;;;;;5058813;28;20182;-62
2022/11/05 07:35:39;;;;;;;2.20;1.70;;;;;;;;;;5056559;28;20174;-62
2022/11/05 07:38:04;;;;;;;2.30;1.63;;;;;;;;;;5054932;28;20185;-62
2022/11/05 07:40:30;;;;;;;1.90;1.70;;;;;;;;;;5057130;28;20185;-61
2022/11/05 07:43:00;;;;;;;1.53;1.40;;;;;;;;;;5048931;28;20187;-62
2022/11/05 07:45:26;;;;;;;1.93;1.70;;;;;;;;;;5056273;28;20179;-62
2022/11/05 07:47:54;;;;;;;2.60;1.80;;;;;;;;;;5056428;28;20206;-62
2022/11/05 07:50:22;;;;;;;2.10;1.60;;;;;;;;;;5051041;28;20318;-62
2022/11/05 07:52:47;;;;;;;1.87;1.67;;;;;;;;;;5055425;28;20213;-62
2022/11/05 07:55:13;;;;;;;2.10;1.57;;;;;;;;;;5058050;28;20317;-62
2022/11/05 07:57:43;;;;;;;2.00;1.70;;;;;;;;;;5054499;28;20301;-61
2022/11/05 08:00:11;;;;;;;2.13;1.73;;;;;;;;;;5059776;28;20343;-62
2022/11/05 08:02:36;;;;;;;3.37;1.80;;;;;;;;;;5057982;28;20181;-62
2022/11/05 08:05:02;;;;;;;2.50;1.70;;;;;;;;;;5054976;28;20190;-62
2022/11/05 08:07:27;;;;;;;2.17;1.80;;;;;;;;;;5058863;28;20217;-62
2022/11/05 08:09:52;;;;;;;2.23;1.90;;;;;;;;;;5053711;28;20210;-62
2022/11/05 08:12:17;;;;;;;1.87;1.67;;;;;;;;;;5060986;28;20182;-62
2022/11/05 08:14:43;;;;;;;2.60;1.90;;;;;;;;;;5060656;28;20174;-62
2022/11/05 08:17:08;;;;;;;1.83;1.67;;;;;;;;;;5060626;28;20197;-62
2022/11/05 08:19:33;;;;;;;2.97;1.67;;;;;;;;;;5061207;28;20224;-62
2022/11/05 08:21:58;;;;;;;1.90;1.67;;;;;;;;;;5056916;28;20182;-62
2022/11/05 08:24:23;;;;;;;2.00;1.60;;;;;;;;;;5058518;28;20205;-62
2022/11/05 08:26:49;;;;;;;2.00;1.70;;;;;;;;;;5060575;28;20213;-62
2022/11/05 08:29:14;;;;;;;1.83;1.57;;;;;;;;;;5055836;28;20209;-62
2022/11/05 08:31:39;;;;;;;2.40;1.80;;;;;;;;;;5069857;28;20269;-62
2022/11/05 08:34:05;;;;;;;4.63;2.00;;;;;;;;;;5067317;28;20186;-62
2022/11/05 08:36:30;;;;;;;2.43;1.93;;;;;;;;;;5067568;28;20174;-62
2022/11/05 08:38:55;;;;;;;2.90;2.10;;;;;;;;;;5064062;28;20708;-62
2022/11/05 08:41:20;;;;;;;2.97;2.27;;;;;;;;;;5056133;28;20190;-63
2022/11/05 08:43:45;;;;;;;2.60;2.20;;;;;;;;;;5066362;28;20207;-62
2022/11/05 08:46:11;;;;;;;3.13;2.20;;;;;;;;;;5066826;28;20220;-61
2022/11/05 08:48:36;;;;;;;2.60;2.10;;;;;;;;;;5063682;28;20209;-60
2022/11/05 08:51:01;;;;;;;4.17;2.47;;;;;;;;;;5054491;28;20187;-61
2022/11/05 08:53:26;;;;;;;3.63;2.27;;;;;;;;;;5057971;28;20217;-61
2022/11/05 08:55:56;;;;;;;2.83;2.27;;;;;;;;;;5059278;28;20218;-62
2022/11/05 08:58:21;;;;;;;6.07;2.60;;;;;;;;;;5063538;28;20197;-62
2022/11/05 09:00:48;;;;;;;7.17;2.13;;;;;;;;;;5054099;28;20588;-62
2022/11/05 09:03:14;;;;;;;2.92;2.38;;;;;;;;;;5056995;28;20572;-60
2022/11/05 09:05:40;;;;;;;3.47;2.40;;;;;;;;;;5058400;28;20227;-62
2022/11/05 09:08:17;;;;;;;4.23;2.30;;;;;;;;;;5056085;28;20235;-62
2022/11/05 09:10:43;;;;;;;3.17;2.13;;;;;;;;;;5057006;28;20186;-59
2022/11/05 09:15:36;;;;;;;4.00;2.20;;;;;;;;;;5038489;28;20215;-59
2022/11/05 09:18:04;;;;;;;3.70;2.60;;;;;;;;;;5043942;28;20201;-55
2022/11/05 09:20:29;;;;;;;3.83;2.63;;;;;;;;;;5041527;28;20168;-59
2022/11/05 09:22:55;;;;;;;2.40;2.07;;;;;;;;;;5037500;28;20179;-58
2022/11/05 09:25:20;;;;;;;5.47;2.33;;;;;;;;;;5045247;28;20268;-53
2022/11/05 09:27:45;;;;;;;5.07;2.50;;;;;;;;;;5042345;28;20218;-54
2022/11/05 09:30:11;;;;;;;3.30;2.50;;;;;;;;;;5045286;28;20447;-52
2022/11/05 09:32:37;;;;;;;3.23;2.37;;;;;;;;;;5040920;28;20187;-60
2022/11/05 09:35:03;;;;;;;3.33;2.50;;;;;;;;;;5042152;28;20584;-51
2022/11/05 09:37:28;;;;;;;3.43;2.33;;;;;;;;;;5041786;28;20175;-57
2022/11/05 09:39:54;;;;;;;3.33;2.40;;;;;;;;;;5043941;28;20229;-59
2022/11/05 09:42:23;;;;;;;2.63;2.07;;;;;;;;;;5044507;28;20205;-58
2022/11/05 09:44:52;;;;;;;3.67;2.50;;;;;;;;;;5022719;28;20195;-59
2022/11/05 09:47:23;;;;;;;2.60;2.07;;;;;;;;;;5024052;28;20206;-57
2022/11/05 09:49:51;;;;;;;3.97;2.70;;;;;;;;;;5039471;28;20556;-59
2022/11/05 09:52:29;;;;;;;3.00;2.33;;;;;;;;;;5040648;28;20210;-56
2022/11/05 09:54:55;;;;;;;2.80;2.20;;;;;;;;;;5040221;28;20195;-58
2022/11/05 09:57:25;;;;;;;3.25;2.35;;;;;;;;;;5020516;28;20180;-59
2022/11/05 09:59:52;;;;;;;3.63;2.35;;;;;;;;;;5019200;28;20174;-56
2022/11/05 10:02:29;;;;;;;2.60;2.08;;;;;;;;;;5022934;28;20179;-57
2022/11/05 10:05:08;;;;;;;3.22;2.00;;;;;;;;;;5016749;28;20199;-57
2022/11/05 10:08:21;;;;;;;3.88;2.08;;;;;;;;;;5042622;28;20194;-57
2022/11/05 10:10:48;;;;;;;2.70;2.20;;;;;;;;;;5015269;28;20190;-54
2022/11/05 10:13:49;;;;;;;3.20;2.33;;;;;;;;;;5040619;28;20186;-56
2022/11/05 10:16:30;;;;;;;2.75;2.42;;;;;;;;;;5030985;28;20196;-55
2022/11/05 10:19:00;;;;;;;3.75;2.67;;;;;;;;;;5026449;28;20262;-58
2022/11/05 10:21:25;;;;;;;4.40;2.30;;;;;;;;;;5026924;28;20175;-55
2022/11/05 10:23:50;;;;;;;3.13;2.58;;;;;;;;;;5032642;28;20213;-57
2022/11/05 10:26:19;;;;;;;3.92;2.30;;;;;;;;;;5041631;28;20211;-58
2022/11/05 10:28:44;;;;;;;9.25;2.40;;;;;;;;;;5017345;28;20248;-57
2022/11/05 10:31:15;;;;;;;2.97;2.10;;;;;;;;;;5040739;28;20182;-55
2022/11/05 10:34:01;;;;;;;3.00;2.35;;;;;;;;;;5022636;28;20589;-53
2022/11/05 10:36:29;;;;;;;2.78;2.20;;;;;;;;;;5036594;28;20608;-55
2022/11/05 10:39:22;;;;;;;2.50;2.00;;;;;;;;;;5039124;28;20206;-51
2022/11/05 10:42:01;;;;;;;3.08;2.40;;;;;;;;;;5036074;28;20238;-57
2022/11/05 10:44:53;;;;;;;2.85;2.08;;;;;;;;;;5024472;28;20198;-53
2022/11/05 10:47:37;;;;;;;3.03;2.20;;;;;;;;;;5006485;28;20210;-58
2022/11/05 10:50:09;;;;;;;2.63;2.33;;;;;;;;;;5030148;28;21294;-56
2022/11/05 10:52:54;;;;;;;3.78;2.20;;;;;;;;;;5023866;28;20175;-55
2022/11/05 10:55:24;;;;;;;3.22;2.08;;;;;;;;;;5039963;28;20609;-56
2022/11/05 10:57:49;;;;;;;3.38;2.72;;;;;;;;;;5020521;28;20259;-54
2022/11/05 11:00:18;;;;;;;3.10;2.38;;;;;;;;;;5027431;28;20313;-53
2022/11/05 11:03:02;;;;;;;3.50;2.33;;;;;;;;;;5038301;28;20301;-48
2022/11/05 11:05:29;;;;;;;5.63;2.72;;;;;;;;;;5036048;28;20237;-58
2022/11/05 11:08:22;;;;;;;4.90;2.72;;;;;;;;;;5035026;28;20201;-57
2022/11/05 11:10:50;;;;;;;2.40;2.20;;;;;;;;;;5021187;28;20209;-55
2022/11/05 11:13:47;;;;;;;4.45;2.38;;;;;;;;;;5017458;28;20232;-57
2022/11/05 11:16:18;;;;;;;3.33;2.47;;;;;;;;;;5020985;28;20852;-58
2022/11/05 11:18:43;;;;;;;3.78;2.40;;;;;;;;;;5021007;28;20241;-56
2022/11/05 11:21:22;;;;;;;2.97;2.40;;;;;;;;;;5038682;28;20592;-56
2022/11/05 11:24:03;;;;;;;3.20;2.50;;;;;;;;;;5043764;28;20241;-55
2022/11/05 11:26:37;;;;;;;3.38;2.00;;;;;;;;;;5024528;28;20213;-56
2022/11/05 11:29:24;;;;;;;3.00;2.08;;;;;;;;;;5032239;28;20258;-57
2022/11/05 11:31:53;;;;;;;3.10;2.05;;;;;;;;;;5042948;28;20646;-56
2022/11/05 11:34:24;;;;;;;3.10;2.10;;;;;;;;;;5023528;28;20253;-55
2022/11/05 11:36:53;;;;;;;3.83;2.60;;;;;;;;;;5035950;28;20557;-55
2022/11/05 11:39:25;;;;;;;2.72;2.15;;;;;;;;;;5027215;28;20179;-54
2022/11/05 11:41:55;;;;;;;2.65;2.13;;;;;;;;;;5041038;28;20170;-58
2022/11/05 11:44:26;;;;;;;3.90;2.20;;;;;;;;;;5047489;28;20679;-56
2022/11/05 11:46:54;;;;;;;2.92;2.15;;;;;;;;;;5017531;28;20190;-54
2022/11/05 11:49:41;;;;;;;2.42;1.92;;;;;;;;;;5037257;28;20552;-54
2022/11/05 11:52:12;;;;;;;2.83;2.10;;;;;;;;;;5017682;28;20176;-54
2022/11/05 11:54:38;;;;;;;2.63;2.20;;;;;;;;;;5035164;28;20294;-56
2022/11/05 11:57:19;;;;;;;2.47;1.92;;;;;;;;;;5038716;28;20250;-56
2022/11/05 11:59:44;;;;;;;2.45;1.90;;;;;;;;;;5033203;28;20272;-59
2022/11/05 12:02:32;;;;;;;2.88;2.08;;;;;;;;;;5032958;28;20224;-56
2022/11/05 12:05:09;;;;;;;2.72;2.08;;;;;;;;;;5037834;28;20218;-59
2022/11/05 12:07:48;;;;;;;2.78;2.35;;;;;;;;;;5034380;28;20210;-60
2022/11/05 12:10:24;;;;;;;2.50;1.98;;;;;;;;;;5039785;28;20575;-54
2022/11/05 12:13:17;;;;;;;2.47;2.27;;;;;;;;;;5022393;28;20178;-53
2022/11/05 12:15:42;;;;;;;2.83;2.20;;;;;;;;;;5045902;28;20175;-52
2022/11/05 12:18:17;;;;;;;6.43;2.33;;;;;;;;;;5032551;28;20179;-57
2022/11/05 12:20:56;;;;;;;4.15;2.78;;;;;;;;;;5020218;28;20177;-54
2022/11/05 12:23:30;;;;;;;5.00;2.22;;;;;;;;;;5030067;28;20191;-56
2022/11/05 12:26:30;;;;;;;2.20;1.95;;;;;;;;;;5034290;28;20655;-54
2022/11/05 12:29:23;;;;;;;2.88;2.05;;;;;;;;;;4956702;28;20213;-55
2022/11/05 12:31:57;;;;;;;3.45;2.30;;;;;;;;;;5012932;28;20590;-59
2022/11/05 12:34:47;;;;;;;3.73;2.20;;;;;;;;;;5030711;28;20215;-55
2022/11/05 12:37:22;;;;;;;4.68;2.17;;;;;;;;;;5038146;28;20178;-55
2022/11/05 12:40:00;;;;;;;2.60;2.13;;;;;;;;;;5013924;28;20729;-59
2022/11/05 12:42:41;;;;;;;2.20;2.00;;;;;;;;;;5030367;28;20180;-57
2022/11/05 12:45:28;;;;;;;3.22;2.25;;;;;;;;;;5023687;28;20585;-57
2022/11/05 12:48:08;;;;;;;2.50;2.00;;;;;;;;;;5034568;28;20795;-53
2022/11/05 12:50:52;;;;;;;4.37;2.30;;;;;;;;;;5024643;28;20174;-55
2022/11/05 12:53:52;;;;;;;2.55;2.10;;;;;;;;;;5016395;28;20180;-51
2022/11/05 12:56:23;;;;;;;3.67;2.30;;;;;;;;;;5022709;28;20175;-57
2022/11/05 12:59:13;;;;;;;2.85;2.00;;;;;;;;;;5020410;28;20727;-58
2022/11/05 13:01:43;;;;;;;2.60;1.98;;;;;;;;;;5026178;28;20253;-58
2022/11/05 13:04:24;;;;;;;4.38;2.20;;;;;;;;;;5046719;28;20549;-59
2022/11/05 13:06:51;;;;;;;5.00;2.13;;;;;;;;;;5027872;28;20286;-57
2022/11/05 13:09:24;;;;;;;2.53;1.80;;;;;;;;;;5023331;28;20167;-58
2022/11/05 13:12:06;;;;;;;5.93;2.10;;;;;;;;;;5031443;28;20178;-58
2022/11/05 13:14:50;;;;;;;2.30;2.03;;;;;;;;;;5023591;28;20206;-58
2022/11/05 13:17:20;;;;;;;2.63;1.80;;;;;;;;;;5032599;28;20174;-58
2022/11/05 13:19:51;;;;;;;4.27;2.10;;;;;;;;;;5029448;28;20179;-57
2022/11/05 13:22:28;;;;;;;4.03;2.00;;;;;;;;;;5030476;28;20182;-57
2022/11/05 13:24:58;;;;;;;2.00;1.70;;;;;;;;;;5012920;28;20191;-57
2022/11/05 13:27:47;;;;;;;2.47;1.73;;;;;;;;;;5029131;28;20191;-55
2022/11/05 13:30:19;;;;;;;2.00;1.60;;;;;;;;;;5023105;28;20322;-56
2022/11/05 13:32:51;;;;;;;4.20;2.00;;;;;;;;;;5036477;28;20735;-57
2022/11/05 13:35:25;;;;;;;2.50;1.90;;;;;;;;;;5038901;28;20282;-57
2022/11/05 13:40:50;;;;;;;7.37;1.90;;;;;;;;;;5029678;28;20233;-58
2022/11/05 13:43:37;;;;;;;2.93;1.97;;;;;;;;;;5041992;28;20182;-56
2022/11/05 13:46:11;;;;;;;2.10;1.90;;;;;;;;;;5040113;28;20184;-57
2022/11/05 13:48:36;;;;;;;3.80;1.80;;;;;;;;;;5025061;28;20189;-59
2022/11/05 13:51:23;;;;;;;2.23;1.90;;;;;;;;;;5043315;28;20171;-56
2022/11/05 13:54:19;;;;;;;1.93;1.70;;;;;;;;;;5040326;28;20202;-54
2022/11/05 13:57:22;;;;;;;1.73;1.60;;;;;;;;;;5043325;28;20183;-56
2022/11/05 14:00:16;;;;;;;2.87;1.90;;;;;;;;;;5042267;28;20581;-57
2022/11/05 14:03:00;;;;;;;3.07;2.00;;;;;;;;;;5023750;28;20179;-56
2022/11/05 14:05:34;;;;;;;1.97;1.73;;;;;;;;;;5040678;28;20206;-56
2022/11/05 14:08:08;;;;;;;1.87;1.60;;;;;;;;;;5038960;28;20207;-57
2022/11/05 14:10:44;;;;;;;2.03;1.70;;;;;;;;;;5043841;28;20189;-56
2022/11/05 14:13:25;;;;;;;3.57;2.00;;;;;;;;;;5020037;28;20175;-53
2022/11/05 14:16:06;;;;;;;2.70;1.80;;;;;;;;;;5040855;28;20179;-59
2022/11/05 14:18:38;;;;;;;2.60;1.83;;;;;;;;;;5036764;28;20175;-54
2022/11/05 14:21:05;;;;;;;2.20;2.00;;;;;;;;;;5039656;28;20183;-58
2022/11/05 14:23:38;;;;;;;2.03;1.83;;;;;;;;;;5025640;28;20285;-55
2022/11/05 14:26:14;;;;;;;2.50;2.00;;;;;;;;;;5047495;28;20680;-56
2022/11/05 14:29:04;;;;;;;2.23;1.80;;;;;;;;;;5042238;28;20194;-56
2022/11/05 14:31:50;;;;;;;2.30;1.60;;;;;;;;;;5033289;28;20187;-58
2022/11/05 14:34:22;;;;;;;2.53;1.80;;;;;;;;;;5033375;28;20312;-59
2022/11/05 14:37:10;;;;;;;2.10;1.70;;;;;;;;;;5035815;28;20179;-56
2022/11/05 14:39:35;;;;;;;1.93;1.70;;;;;;;;;;5033613;28;20214;-57
2022/11/05 14:42:03;;;;;;;1.87;1.60;;;;;;;;;;5037130;28;20214;-58
2022/11/05 14:44:30;;;;;;;2.97;1.60;;;;;;;;;;5017901;28;20248;-54
2022/11/05 14:47:02;;;;;;;2.30;1.70;;;;;;;;;;5019742;28;20207;-58
2022/11/05 14:49:33;;;;;;;2.13;1.93;;;;;;;;;;5018290;28;20728;-57
2022/11/05 14:51:59;;;;;;;2.50;1.90;;;;;;;;;;5034667;28;20669;-57
2022/11/05 14:54:47;;;;;;;2.60;1.77;;;;;;;;;;5036540;28;20197;-59
2022/11/05 14:57:14;;;;;;;3.50;1.80;;;;;;;;;;5033164;28;20179;-59
2022/11/05 14:59:56;;;;;;;2.80;1.70;;;;;;;;;;5034627;28;20254;-56
2022/11/05 15:02:25;;;;;;;1.87;1.70;;;;;;;;;;5042406;28;20179;-57
2022/11/05 15:05:29;;;;;;;2.17;1.50;;;;;;;;;;5046698;28;20776;-57
2022/11/05 15:07:58;;;;;;;2.47;1.67;;;;;;;;;;5045817;28;20702;-59
2022/11/05 15:10:31;;;;;;;1.60;1.50;;;;;;;;;;5037840;28;20174;-58
2022/11/05 15:13:02;;;;;;;2.10;1.80;;;;;;;;;;5043736;28;20315;-57
2022/11/05 15:15:31;;;;;;;1.87;1.67;;;;;;;;;;5042713;28;20273;-61
2022/11/05 15:18:00;;;;;;;3.17;1.70;;;;;;;;;;5019228;28;20190;-62
2022/11/05 15:20:33;;;;;;;3.00;1.97;;;;;;;;;;5018653;28;20233;-62
2022/11/05 15:23:02;;;;;;;2.40;1.80;;;;;;;;;;5036334;28;20175;-61
2022/11/05 15:25:45;;;;;;;2.67;1.80;;;;;;;;;;5039531;28;20260;-61
2022/11/05 15:28:34;;;;;;;1.93;1.57;;;;;;;;;;5041128;28;20203;-61
2022/11/05 15:31:02;;;;;;;2.47;1.77;;;;;;;;;;5039614;28;20270;-61
2022/11/05 15:33:28;;;;;;;3.10;1.63;;;;;;;;;;5041657;28;20195;-61
2022/11/05 15:35:53;;;;;;;1.63;1.50;;;;;;;;;;5036821;28;20225;-61
2022/11/05 15:38:28;;;;;;;1.80;1.50;;;;;;;;;;5024392;28;20261;-61
2022/11/05 15:41:18;;;;;;;2.13;1.70;;;;;;;;;;5038734;28;20174;-61
2022/11/05 15:43:44;;;;;;;1.73;1.63;;;;;;;;;;5039729;28;20689;-61
2022/11/05 15:46:21;;;;;;;2.80;1.60;;;;;;;;;;5040770;28;20182;-61
2022/11/05 15:48:48;;;;;;;2.57;1.80;;;;;;;;;;5040086;28;20182;-61
2022/11/05 15:51:17;;;;;;;1.77;1.50;;;;;;;;;;5007748;28;20650;-61
2022/11/05 15:53:43;;;;;;;1.70;1.60;;;;;;;;;;5018208;28;20212;-61